Time;durP1;ratioP1;P1;durP2;ratioP2;P2;SDS_P1;SDS_P2;PMS_P1;PMS_P2;Temp;Humidity;BMP_temperature;BMP_pressure;BME280_temperature;BME280_humidity;BME280_pressure;Samples;Min_cycle;Max_cycle;Signal;HPM_P1;HPM_P2
2023/03/15 00:01:02;;;;;;;15.77;9.53;;;8.50;55.40;;;8.43;43.02;93977.84;5060005;28;20950;-58
2023/03/15 00:03:30;;;;;;;18.73;9.33;;;8.40;55.50;;;8.40;43.47;93977.28;5075541;28;20474;-57
2023/03/15 00:05:58;;;;;;;18.07;9.83;;;8.40;55.60;;;8.36;43.55;93976.75;5077381;28;20455;-55
2023/03/15 00:08:25;;;;;;;18.03;10.27;;;8.40;55.90;;;8.33;43.97;93976.22;5072887;28;20628;-59
2023/03/15 00:10:52;;;;;;;16.90;10.67;;;8.30;56.50;;;8.28;43.56;93968.81;5070222;28;20807;-57
2023/03/15 00:13:20;;;;;;;21.57;11.30;;;8.30;56.10;;;8.25;43.59;93969.09;5079079;28;20485;-58
2023/03/15 00:15:48;;;;;;;16.27;9.73;;;8.30;56.40;;;8.23;44.42;93973.69;5069068;28;20463;-56
2023/03/15 00:18:15;;;;;;;19.60;10.40;;;8.30;56.50;;;8.20;44.26;93974.78;5065290;28;20473;-57
2023/03/15 00:20:44;;;;;;;17.43;10.37;;;8.20;56.50;;;8.20;44.07;93966.94;5080072;28;20450;-58
2023/03/15 00:23:11;;;;;;;15.30;9.90;;;8.20;56.50;;;8.20;43.92;93972.16;5066634;28;20530;-55
2023/03/15 00:25:38;;;;;;;16.40;10.50;;;8.20;56.90;;;8.19;44.42;93965.28;5068780;28;20528;-58
2023/03/15 00:28:06;;;;;;;19.73;10.67;;;8.20;57.50;;;8.18;44.74;93968.88;5077597;28;20562;-55
2023/03/15 00:30:33;;;;;;;23.23;10.53;;;8.20;57.20;;;8.16;44.85;93965.56;5076731;28;20475;-56
2023/03/15 00:33:00;;;;;;;16.90;11.03;;;8.10;57.60;;;8.16;44.46;93960.31;5072007;28;20634;-61
2023/03/15 00:35:28;;;;;;;13.90;9.77;;;8.10;57.60;;;8.16;44.84;93956.91;5073055;28;20471;-56
2023/03/15 00:37:57;;;;;;;20.60;11.03;;;8.10;57.50;;;8.15;44.37;93956.09;5079831;28;20467;-55
2023/03/15 00:40:24;;;;;;;15.70;9.20;;;8.10;57.50;;;8.17;44.94;93954.13;5073318;28;20938;-58
2023/03/15 00:42:51;;;;;;;14.37;8.80;;;8.10;57.60;;;8.17;44.28;93954.13;5073374;28;21367;-58
2023/03/15 00:45:19;;;;;;;16.33;9.03;;;8.20;57.50;;;8.19;45.15;93965.28;5079367;28;20462;-58
2023/03/15 00:47:48;;;;;;;15.30;9.47;;;8.20;57.80;;;8.21;44.24;93950.25;5074958;28;20513;-58
2023/03/15 00:50:16;;;;;;;17.83;9.30;;;8.20;57.60;;;8.24;44.37;93951.72;5068921;28;20450;-58
2023/03/15 00:52:43;;;;;;;14.20;9.50;;;8.20;57.70;;;8.24;44.31;93942.09;5079625;28;21013;-58
2023/03/15 00:55:13;;;;;;;16.47;10.07;;;8.20;57.60;;;8.27;44.52;93935.72;5075192;28;20447;-58
2023/03/15 00:57:40;;;;;;;19.80;11.27;;;8.20;57.70;;;8.28;44.37;93931.31;5058844;28;20466;-58
2023/03/15 01:00:11;;;;;;;16.40;10.30;;;8.20;57.70;;;8.25;44.55;93930.63;5075541;28;20451;-55
2023/03/15 01:02:38;;;;;;;15.37;9.60;;;8.20;57.70;;;8.24;45.06;93929.00;5073798;28;20503;-57
2023/03/15 01:05:06;;;;;;;17.93;9.33;;;8.20;57.70;;;8.25;45.43;93928.00;5069370;28;20836;-59
2023/03/15 01:07:33;;;;;;;15.67;8.67;;;8.20;58.20;;;8.22;45.31;93917.81;5074928;28;20502;-58
2023/03/15 01:10:01;;;;;;;17.30;10.83;;;8.20;58.20;;;8.21;44.62;93925.84;5076297;28;20442;-59
2023/03/15 01:12:31;;;;;;;14.23;9.63;;;8.20;57.90;;;8.18;44.71;93926.97;5068634;28;20503;-57
2023/03/15 01:14:58;;;;;;;16.10;10.10;;;8.20;58.10;;;8.20;45.05;93922.41;5054452;28;20457;-56
2023/03/15 01:17:26;;;;;;;13.13;9.00;;;8.20;58.10;;;8.20;45.36;93922.41;5076054;28;20474;-58
2023/03/15 01:19:53;;;;;;;18.50;8.47;;;8.20;58.20;;;8.20;44.87;93919.78;5063292;28;20975;-56
2023/03/15 01:22:20;;;;;;;22.80;9.67;;;8.20;58.20;;;8.20;44.84;93916.34;5060029;28;20553;-56
2023/03/15 01:24:47;;;;;;;14.67;9.83;;;8.20;58.20;;;8.18;44.60;93906.03;5077713;28;20500;-59
2023/03/15 01:27:15;;;;;;;15.77;8.90;;;8.20;57.90;;;8.18;45.01;93903.41;5076012;28;20501;-56
2023/03/15 01:29:43;;;;;;;18.80;8.83;;;8.20;58.10;;;8.19;45.05;93901.59;5068963;28;20469;-59
2023/03/15 01:32:11;;;;;;;16.77;10.10;;;8.20;58.10;;;8.17;44.63;93901.75;5078895;28;20469;-58
2023/03/15 01:34:38;;;;;;;10.43;9.13;;;8.20;58.10;;;8.17;45.17;93899.13;5070724;28;20454;-56
2023/03/15 01:37:06;;;;;;;21.00;10.60;;;8.20;58.20;;;8.16;45.16;93894.84;5071541;28;20923;-58
2023/03/15 01:39:33;;;;;;;14.90;10.30;;;8.20;58.20;;;8.16;44.87;93894.84;5070372;28;20966;-56
2023/03/15 01:42:00;;;;;;;18.10;9.97;;;8.10;58.20;;;8.14;45.39;93883.72;5077518;28;20508;-58
2023/03/15 01:44:52;;;;;;;20.07;11.50;;;8.10;58.60;;;8.11;45.39;93891.84;5072228;28;20450;-56
2023/03/15 01:47:19;;;;;;;21.83;10.30;;;8.10;58.40;;;8.10;44.84;93892.00;5071648;28;21019;-57
2023/03/15 01:49:48;;;;;;;20.13;9.40;;;8.10;58.40;;;8.07;45.18;93895.75;5077172;28;20466;-57
2023/03/15 01:52:18;;;;;;;16.00;9.47;;;8.10;58.40;;;8.08;45.37;93884.31;5072841;28;20483;-58
2023/03/15 01:54:48;;;;;;;17.63;10.33;;;8.00;58.50;;;8.06;45.21;93875.78;5069119;28;20540;-58
2023/03/15 01:57:18;;;;;;;18.00;9.17;;;8.10;58.40;;;8.03;45.05;93869.03;5076210;28;20508;-58
2023/03/15 01:59:54;;;;;;;15.00;9.10;;;8.00;58.40;;;8.02;44.96;93877.03;5072220;28;20442;-55
2023/03/15 02:02:21;;;;;;;23.63;10.23;;;8.00;58.30;;;8.00;45.05;93860.66;5068389;28;20471;-55
2023/03/15 02:04:53;;;;;;;19.20;9.47;;;8.00;58.50;;;7.98;44.83;93857.34;5081703;28;20445;-60
2023/03/15 02:07:21;;;;;;;15.40;9.47;;;8.00;58.40;;;7.97;45.33;93859.16;5073887;28;20471;-57
2023/03/15 02:09:52;;;;;;;14.23;9.33;;;8.00;58.70;;;7.94;45.58;93856.03;5066122;28;20447;-57
2023/03/15 02:12:19;;;;;;;15.70;9.77;;;7.90;58.70;;;7.92;45.77;93852.72;5075878;28;21012;-56
2023/03/15 02:14:46;;;;;;;17.90;10.07;;;7.90;58.60;;;7.90;45.54;93851.09;5076684;28;20967;-57
2023/03/15 02:17:15;;;;;;;17.30;10.00;;;7.90;58.80;;;7.89;45.35;93849.44;5067079;28;20846;-57
2023/03/15 02:19:49;;;;;;;15.93;9.73;;;7.90;58.80;;;7.87;45.83;93846.16;5074474;28;20907;-57
2023/03/15 02:22:27;;;;;;;19.30;10.03;;;7.90;58.60;;;7.87;45.71;93846.16;5062132;28;20473;-56
2023/03/15 02:24:58;;;;;;;24.00;9.10;;;7.90;58.80;;;7.86;45.63;93844.50;5065376;28;20830;-59
2023/03/15 02:27:29;;;;;;;15.93;9.50;;;7.80;58.70;;;7.84;45.96;93843.81;5070509;28;20470;-57
2023/03/15 02:29:56;;;;;;;17.53;10.13;;;7.90;59.10;;;7.81;45.47;93833.66;5076595;28;20449;-59
2023/03/15 02:32:24;;;;;;;15.13;10.37;;;7.80;59.20;;;7.78;45.48;93836.56;5072895;28;20475;-56
2023/03/15 02:34:51;;;;;;;20.00;10.10;;;7.80;59.30;;;7.78;45.61;93849.66;5067367;28;20455;-57
2023/03/15 02:37:18;;;;;;;18.80;10.40;;;7.80;59.40;;;7.76;46.30;93841.13;5079695;28;20515;-58
2023/03/15 02:39:45;;;;;;;21.03;11.23;;;7.80;59.50;;;7.75;46.72;93841.28;5071548;28;20466;-58
2023/03/15 02:42:13;;;;;;;17.27;10.70;;;7.80;60.10;;;7.71;46.74;93841.56;5065202;28;21016;-56
2023/03/15 02:44:43;;;;;;;18.33;9.97;;;7.70;60.00;;;7.69;46.57;93834.84;5076160;28;20473;-58
2023/03/15 02:47:12;;;;;;;23.73;10.37;;;7.70;59.90;;;7.67;46.30;93834.16;5074978;28;20481;-59
2023/03/15 02:49:41;;;;;;;18.33;9.60;;;7.70;60.00;;;7.63;46.57;93820.53;5067127;28;20501;-55
2023/03/15 02:52:09;;;;;;;16.40;10.00;;;7.70;60.00;;;7.64;46.65;93821.38;5074732;28;20543;-58
2023/03/15 02:54:38;;;;;;;15.23;9.80;;;7.70;60.20;;;7.63;46.01;93828.38;5076681;28;20443;-57
2023/03/15 02:57:05;;;;;;;16.23;10.03;;;7.60;59.80;;;7.61;45.98;93824.28;5069368;28;20479;-56
2023/03/15 02:59:32;;;;;;;22.73;10.40;;;7.60;59.80;;;7.59;46.79;93810.50;5069739;28;20465;-57
2023/03/15 03:02:01;;;;;;;33.73;14.90;;;7.60;60.20;;;7.57;46.45;93813.28;5075576;28;20475;-58
2023/03/15 03:04:28;;;;;;;114.70;43.43;;;7.60;60.30;;;7.53;46.98;93815.38;5071696;28;20520;-58
2023/03/15 03:06:56;;;;;;;36.07;18.37;;;7.60;60.40;;;7.48;46.09;93809.78;5066899;28;20470;-55
2023/03/15 03:09:23;;;;;;;29.93;13.13;;;7.50;60.00;;;7.47;47.03;93804.69;5076472;28;20490;-58
2023/03/15 03:11:50;;;;;;;23.80;11.10;;;7.50;60.10;;;7.45;47.07;93798.75;5068794;28;20470;-58
2023/03/15 03:14:18;;;;;;;24.83;12.27;;;7.50;60.70;;;7.41;46.98;93803.47;5066815;28;20512;-57
2023/03/15 03:16:45;;;;;;;18.60;10.03;;;7.40;60.60;;;7.37;46.58;93799.50;5076811;28;20479;-55
2023/03/15 03:19:14;;;;;;;14.50;8.90;;;7.40;60.90;;;7.35;47.75;93801.44;5073756;28;20450;-57
2023/03/15 03:21:42;;;;;;;17.37;9.20;;;7.40;61.70;;;7.30;47.95;93807.13;5065025;28;20481;-56
2023/03/15 03:24:09;;;;;;;17.73;10.27;;;7.40;62.30;;;7.27;48.25;93796.94;5076180;28;20540;-57
2023/03/15 03:26:36;;;;;;;17.03;10.13;;;7.30;62.60;;;7.27;48.59;93791.72;5074415;28;20467;-57
2023/03/15 03:29:04;;;;;;;18.40;9.93;;;7.30;63.00;;;7.27;48.15;93790.91;5070572;28;20549;-57
2023/03/15 03:31:32;;;;;;;16.80;9.73;;;7.30;63.20;;;7.26;47.71;93795.28;5070702;28;20483;-58
2023/03/15 03:33:59;;;;;;;79.73;35.27;;;7.30;62.90;;;7.25;47.86;93795.44;5076544;28;20458;-60
2023/03/15 03:36:28;;;;;;;36.17;18.63;;;7.30;63.40;;;7.25;48.61;93795.44;5072581;28;20534;-55
2023/03/15 03:38:55;;;;;;;21.40;11.57;;;7.30;63.60;;;7.24;48.42;93789.38;5072652;28;20534;-56
2023/03/15 03:41:23;;;;;;;23.23;10.40;;;7.30;64.10;;;7.25;48.06;93792.81;5081778;28;20488;-56
2023/03/15 03:43:50;;;;;;;24.07;9.33;;;7.30;63.80;;;7.28;48.55;93782.91;5075084;28;20458;-59
2023/03/15 03:46:17;;;;;;;16.90;9.13;;;7.30;63.80;;;7.30;48.31;93783.56;5070622;28;20450;-58
2023/03/15 03:48:45;;;;;;;14.43;8.80;;;7.30;64.00;;;7.33;48.19;93787.69;5080859;28;20519;-55
2023/03/15 03:51:12;;;;;;;13.47;9.60;;;7.30;64.00;;;7.36;48.58;93784.78;5076096;28;20829;-57
2023/03/15 03:53:40;;;;;;;18.97;10.20;;;7.40;64.10;;;7.38;48.37;93769.75;5072413;28;20531;-56
2023/03/15 03:56:09;;;;;;;15.00;9.20;;;7.40;64.00;;;7.40;48.19;93767.00;5076372;28;20462;-55
2023/03/15 03:58:36;;;;;;;16.87;10.30;;;7.40;64.00;;;7.41;48.25;93761.63;5076989;28;20469;-56
2023/03/15 04:01:04;;;;;;;16.63;10.47;;;7.40;64.00;;;7.44;48.17;93765.75;5072495;28;20450;-56
2023/03/15 04:03:32;;;;;;;21.07;10.67;;;7.40;63.90;;;7.45;48.35;93752.50;5075230;28;20473;-55
2023/03/15 04:05:59;;;;;;;13.30;9.87;;;7.40;63.70;;;7.47;48.32;93753.19;5075799;28;20450;-58
2023/03/15 04:08:27;;;;;;;15.70;9.23;;;7.50;63.90;;;7.49;48.47;93756.47;5075291;28;20547;-56
2023/03/15 04:10:56;;;;;;;20.10;10.30;;;7.50;63.60;;;7.50;48.37;93760.72;5071751;28;20837;-58
2023/03/15 04:13:24;;;;;;;15.57;10.23;;;7.50;63.90;;;7.52;48.09;93758.78;5080583;28;20500;-58
2023/03/15 04:15:56;;;;;;;18.47;9.50;;;7.50;63.80;;;7.55;48.48;93755.06;5076172;28;20930;-57
2023/03/15 04:18:23;;;;;;;15.37;10.00;;;7.50;63.80;;;7.56;48.45;93764.56;5067969;28;20485;-56
2023/03/15 04:20:53;;;;;;;25.63;10.73;;;7.60;64.00;;;7.57;48.20;93755.72;5072852;28;20879;-59
2023/03/15 04:23:21;;;;;;;22.23;10.10;;;7.60;64.10;;;7.58;47.75;93759.16;5070166;28;20461;-56
2023/03/15 04:25:48;;;;;;;21.03;11.60;;;7.60;63.90;;;7.59;48.42;93752.94;5072097;28;21377;-59
2023/03/15 04:28:17;;;;;;;13.97;10.23;;;7.60;63.90;;;7.60;48.13;93746.75;5076082;28;20497;-61
2023/03/15 04:30:45;;;;;;;23.33;9.67;;;7.60;63.40;;;7.59;47.92;93753.78;5079314;28;20454;-58
2023/03/15 04:33:12;;;;;;;11.90;8.70;;;7.60;63.60;;;7.61;47.88;93756.25;5071214;28;20540;-59
2023/03/15 04:35:41;;;;;;;17.40;10.67;;;7.60;63.90;;;7.62;48.01;93758.72;5075428;28;20780;-59
2023/03/15 04:38:08;;;;;;;21.30;10.63;;;7.60;63.60;;;7.64;48.05;93751.53;5079065;28;20466;-57
2023/03/15 04:40:36;;;;;;;20.40;10.63;;;7.60;63.60;;;7.64;47.66;93748.09;5073887;28;20486;-57
2023/03/15 04:43:04;;;;;;;17.20;11.07;;;7.70;63.80;;;7.64;47.62;93745.50;5066017;28;20861;-59
2023/03/15 04:45:33;;;;;;;20.60;9.90;;;7.70;63.40;;;7.64;47.29;93740.25;5080818;28;20457;-60
2023/03/15 04:48:01;;;;;;;17.67;8.83;;;7.70;63.20;;;7.66;47.46;93735.69;5073004;28;20540;-58
2023/03/15 04:50:29;;;;;;;19.83;9.23;;;7.70;63.10;;;7.65;47.66;93736.66;5066503;28;20943;-57
2023/03/15 04:52:57;;;;;;;20.33;9.57;;;7.70;63.30;;;7.66;47.81;93743.53;5077606;28;20915;-59
2023/03/15 04:55:25;;;;;;;17.83;9.10;;;7.70;63.40;;;7.65;48.31;93736.66;5076220;28;20457;-59
2023/03/15 04:57:52;;;;;;;16.43;9.30;;;7.70;63.90;;;7.64;47.72;93733.22;5069236;28;20467;-56
2023/03/15 05:00:20;;;;;;;17.73;10.13;;;7.60;63.60;;;7.65;47.52;93736.66;5075365;28;20462;-54
2023/03/15 05:02:53;;;;;;;14.03;9.30;;;7.60;63.30;;;7.64;47.53;93729.78;5075960;28;20475;-59
2023/03/15 05:05:21;;;;;;;17.27;9.67;;;7.60;63.10;;;7.62;47.48;93727.31;5069177;28;20486;-59
2023/03/15 05:07:48;;;;;;;23.10;10.10;;;7.70;63.10;;;7.66;47.09;93743.53;5075255;28;20474;-57
2023/03/15 05:10:16;;;;;;;18.60;10.53;;;7.70;62.60;;;7.68;47.53;93744.19;5075021;28;20607;-58
2023/03/15 05:12:43;;;;;;;18.47;9.70;;;7.70;62.60;;;7.73;47.36;93741.97;5072274;28;21005;-59
2023/03/15 05:15:11;;;;;;;17.90;8.87;;;7.70;63.20;;;7.77;46.91;93735.44;5064782;28;20451;-55
2023/03/15 05:17:38;;;;;;;24.87;10.90;;;7.80;62.20;;;7.77;46.67;93751.16;5079753;28;20478;-59
2023/03/15 05:20:11;;;;;;;27.50;15.10;;;7.80;61.70;;;7.75;46.64;93745.25;5072988;28;20455;-56
2023/03/15 05:22:38;;;;;;;29.60;14.03;;;7.70;61.00;;;7.70;46.05;93737.84;5062797;28;20479;-58
2023/03/15 05:25:07;;;;;;;24.73;13.37;;;7.80;60.70;;;7.66;45.35;93744.34;5067609;28;20443;-56
2023/03/15 05:27:34;;;;;;;26.50;14.20;;;7.70;60.10;;;7.62;45.53;93737.78;5069686;28;20462;-58
2023/03/15 05:30:02;;;;;;;25.83;12.73;;;7.70;59.90;;;7.57;45.39;93739.19;5064444;28;20487;-58
2023/03/15 05:32:33;;;;;;;31.63;14.60;;;7.60;59.60;;;7.54;45.39;93733.31;5065853;28;20475;-57
2023/03/15 05:35:01;;;;;;;26.33;12.47;;;7.60;59.80;;;7.54;45.87;93740.31;5065720;28;20687;-56
2023/03/15 05:37:31;;;;;;;24.20;12.27;;;7.60;59.90;;;7.58;45.44;93740.84;5066859;28;20839;-55
2023/03/15 05:39:58;;;;;;;25.07;12.07;;;7.60;60.00;;;7.61;45.65;93730.91;5066629;28;20437;-58
2023/03/15 05:42:26;;;;;;;25.10;12.90;;;7.60;60.00;;;7.68;45.38;93731.13;5071357;28;20497;-56
2023/03/15 05:44:53;;;;;;;37.17;13.37;;;7.70;60.00;;;7.74;45.43;93730.50;5071234;28;20521;-59
2023/03/15 05:47:20;;;;;;;37.67;14.60;;;7.70;59.90;;;7.81;44.92;93736.00;5069562;28;20474;-58
2023/03/15 05:49:47;;;;;;;39.60;14.40;;;7.80;59.70;;;7.86;45.08;93737.16;5075520;28;20559;-59
2023/03/15 05:52:15;;;;;;;25.23;13.97;;;7.80;59.70;;;7.93;44.81;93732.13;5073776;28;20479;-58
2023/03/15 05:54:43;;;;;;;30.33;15.50;;;7.90;59.60;;;8.00;44.84;93727.13;5066462;28;20465;-59
2023/03/15 05:57:11;;;;;;;29.70;13.00;;;7.90;59.10;;;8.04;45.00;93724.06;5076810;28;20592;-56
2023/03/15 05:59:38;;;;;;;45.30;16.40;;;8.00;59.10;;;8.11;44.62;93721.63;5074255;28;20450;-59
2023/03/15 06:02:06;;;;;;;32.10;14.57;;;8.00;59.10;;;8.16;44.64;93724.59;5068578;28;20489;-57
2023/03/15 06:04:33;;;;;;;30.70;14.17;;;8.10;58.80;;;8.22;44.08;93726.59;5076692;28;20879;-59
2023/03/15 06:07:00;;;;;;;27.67;13.50;;;8.20;58.70;;;8.30;43.95;93731.09;5075738;28;20586;-56
2023/03/15 06:09:28;;;;;;;24.87;12.07;;;8.20;58.40;;;8.45;44.22;93733.19;5065004;28;20495;-58
2023/03/15 06:11:57;;;;;;;35.80;15.60;;;8.40;58.30;;;8.69;43.98;93729.84;5072868;28;20477;-55
2023/03/15 06:14:25;;;;;;;28.33;12.60;;;8.60;58.40;;;8.91;42.83;93728.50;5078110;28;20974;-59
2023/03/15 06:16:52;;;;;;;28.27;12.40;;;8.80;57.70;;;9.00;43.21;93738.03;5071881;28;20470;-59
2023/03/15 06:19:20;;;;;;;17.80;8.63;;;8.90;57.40;;;9.08;42.86;93740.69;5065207;28;20446;-60
2023/03/15 06:21:47;;;;;;;8.77;5.33;;;9.00;57.10;;;9.17;42.20;93754.66;5074129;28;21422;-57
2023/03/15 06:24:14;;;;;;;28.93;5.20;;;9.10;56.10;;;9.21;41.99;93750.72;5073827;28;20523;-57
2023/03/15 06:26:41;;;;;;;13.77;5.97;;;9.20;55.90;;;9.26;41.35;93751.06;5067528;28;20486;-56
2023/03/15 06:29:10;;;;;;;6.63;4.57;;;9.20;55.30;;;9.40;41.27;93743.56;5080724;28;21177;-59
2023/03/15 06:31:37;;;;;;;8.57;4.13;;;9.30;55.00;;;9.52;40.86;93737.03;5072449;28;20462;-58
2023/03/15 06:34:04;;;;;;;11.33;3.47;;;9.40;54.80;;;9.57;40.11;93734.72;5067484;28;21033;-56
2023/03/15 06:36:32;;;;;;;13.83;4.87;;;9.50;53.90;;;9.60;41.36;93723.91;5072985;28;20528;-59
2023/03/15 06:38:59;;;;;;;7.73;5.10;;;9.50;55.30;;;9.64;41.54;93724.41;5076420;28;20527;-59
2023/03/15 06:41:26;;;;;;;12.67;4.47;;;9.60;55.40;;;9.66;41.26;93727.69;5068242;28;20451;-57
2023/03/15 06:43:53;;;;;;;10.80;5.27;;;9.60;55.30;;;9.73;42.61;93726.06;5069814;28;20461;-59
2023/03/15 06:46:22;;;;;;;8.20;4.40;;;9.60;56.80;;;9.94;41.90;93722.13;5076235;28;21076;-56
2023/03/15 06:48:49;;;;;;;10.40;5.60;;;9.80;55.90;;;10.17;41.63;93723.09;5072260;28;20520;-59
2023/03/15 06:51:17;;;;;;;7.20;5.03;;;10.00;55.50;;;10.38;40.65;93717.34;5064295;28;20458;-56
2023/03/15 06:53:44;;;;;;;10.20;5.67;;;10.20;54.10;;;10.61;40.40;93724.50;5077986;28;20454;-59
2023/03/15 06:56:11;;;;;;;9.40;5.30;;;10.40;53.80;;;10.82;39.99;93723.97;5073715;28;20459;-56
2023/03/15 06:58:39;;;;;;;5.47;4.80;;;10.60;53.40;;;11.11;39.79;93728.63;5062285;28;20500;-59
2023/03/15 07:01:06;;;;;;;6.90;5.20;;;10.80;53.00;;;11.43;39.35;93733.91;5075164;28;20447;-58
2023/03/15 07:03:34;;;;;;;10.80;5.63;;;11.10;52.60;;;11.77;38.92;93720.38;5072352;28;20494;-57
2023/03/15 07:06:02;;;;;;;19.67;5.37;;;11.40;52.60;;;12.23;38.55;93721.38;5056432;28;20462;-60
2023/03/15 07:08:29;;;;;;;6.10;5.50;;;11.90;52.40;;;12.76;37.55;93718.69;5072436;28;20469;-59
2023/03/15 07:10:56;;;;;;;14.13;6.03;;;12.40;51.40;;;13.33;36.84;93715.41;5069474;28;20495;-60
2023/03/15 07:13:24;;;;;;;12.10;6.67;;;12.90;50.00;;;13.74;36.50;93711.38;5066751;28;20466;-56
2023/03/15 07:15:54;;;;;;;13.23;7.37;;;13.40;49.90;;;14.13;36.16;93712.78;5075446;28;20970;-60
2023/03/15 07:18:21;;;;;;;18.03;8.00;;;13.70;49.40;;;14.51;34.78;93713.25;5078488;28;20501;-55
2023/03/15 07:20:56;;;;;;;18.83;8.63;;;14.10;47.80;;;14.75;34.46;93707.75;5070152;28;21277;-56
2023/03/15 07:23:24;;;;;;;14.73;6.80;;;14.40;47.70;;;14.81;34.46;93710.44;5075137;28;20501;-59
2023/03/15 07:25:51;;;;;;;11.00;5.83;;;14.50;46.80;;;14.73;34.63;93713.22;5081900;28;20481;-59
2023/03/15 07:28:18;;;;;;;14.93;6.57;;;14.50;46.60;;;14.55;33.74;93713.72;5076006;28;20485;-58
2023/03/15 07:30:54;;;;;;;8.00;6.30;;;14.40;45.90;;;14.37;34.46;93708.06;5070523;28;20876;-58
2023/03/15 07:33:22;;;;;;;10.43;6.10;;;14.20;46.80;;;14.28;34.99;93720.59;5081574;28;20472;-59
2023/03/15 07:35:52;;;;;;;7.80;5.80;;;14.10;47.00;;;14.26;35.09;93707.56;5076384;28;20488;-55
2023/03/15 07:38:19;;;;;;;12.93;5.70;;;14.10;47.40;;;14.30;35.05;93698.25;5072041;28;20542;-59
2023/03/15 07:40:47;;;;;;;8.53;6.30;;;14.10;47.40;;;14.61;35.26;93694.44;5077826;28;20446;-60
2023/03/15 07:43:14;;;;;;;13.90;6.57;;;14.40;47.90;;;15.13;33.24;93704.72;5078153;28;20474;-55
2023/03/15 07:45:41;;;;;;;8.00;5.40;;;14.80;45.60;;;15.59;34.60;93707.53;5072350;28;20977;-60
2023/03/15 07:48:09;;;;;;;18.17;5.67;;;15.30;47.00;;;16.20;34.09;93700.53;5077795;28;20469;-56
2023/03/15 07:50:37;;;;;;;9.43;5.60;;;15.90;46.60;;;16.94;33.25;93698.66;5074734;28;20494;-58
2023/03/15 07:53:06;;;;;;;13.40;5.70;;;16.60;46.30;;;17.61;32.56;93701.06;5071811;28;21002;-55
2023/03/15 07:55:33;;;;;;;9.53;6.10;;;17.30;44.90;;;18.27;31.54;93691.91;5070999;28;20519;-59
2023/03/15 07:58:00;;;;;;;6.60;4.63;;;18.00;43.80;;;18.66;30.41;93688.34;5075720;28;20472;-57
2023/03/15 08:00:28;;;;;;;7.93;4.70;;;18.50;41.80;;;18.89;30.62;93685.88;5072315;28;20495;-59
2023/03/15 08:02:55;;;;;;;8.00;5.63;;;18.80;42.60;;;19.02;29.65;93686.78;5068590;28;20904;-59
2023/03/15 08:05:23;;;;;;;11.73;5.23;;;18.90;40.90;;;18.99;30.32;93686.19;5076295;28;20507;-57
2023/03/15 08:07:51;;;;;;;9.10;4.70;;;18.90;41.40;;;18.82;29.39;93682.41;5072406;28;20466;-59
2023/03/15 08:10:20;;;;;;;10.33;5.53;;;18.80;40.60;;;18.50;29.97;93679.88;5068838;28;20486;-57
2023/03/15 08:12:47;;;;;;;6.03;4.50;;;18.60;41.20;;;18.31;29.59;93683.50;5075365;28;20477;-55
2023/03/15 08:15:15;;;;;;;9.23;4.60;;;18.30;40.80;;;17.96;30.01;93679.44;5078324;28;20794;-59
2023/03/15 08:17:42;;;;;;;11.30;4.80;;;17.90;40.30;;;17.84;29.00;93671.28;5072662;28;20479;-58
2023/03/15 08:20:13;;;;;;;6.90;4.57;;;17.80;39.60;;;17.73;30.08;93670.13;5075774;28;20462;-59
2023/03/15 08:22:43;;;;;;;7.97;4.30;;;17.60;40.70;;;17.58;29.84;93674.09;5068020;28;20497;-57
2023/03/15 08:25:11;;;;;;;5.70;4.53;;;17.40;41.00;;;17.33;30.04;93674.84;5070998;28;20470;-56
2023/03/15 08:27:40;;;;;;;6.30;4.17;;;17.30;40.80;;;17.38;30.56;93678.50;5073076;28;20469;-56
2023/03/15 08:30:10;;;;;;;9.10;4.33;;;17.30;41.70;;;17.68;30.36;93687.78;5079993;28;20494;-58
2023/03/15 08:32:38;;;;;;;7.23;3.50;;;17.40;41.50;;;17.86;30.45;93674.56;5074084;28;20487;-56
2023/03/15 08:35:06;;;;;;;7.87;4.23;;;17.70;41.20;;;18.03;29.44;93668.75;5070404;28;20521;-56
2023/03/15 08:37:34;;;;;;;4.80;4.30;;;17.80;40.80;;;18.19;29.10;93662.91;5081584;28;20565;-59
2023/03/15 08:40:07;;;;;;;4.77;4.37;;;18.00;40.50;;;18.37;29.31;93658.66;5074439;28;20982;-60
2023/03/15 08:42:35;;;;;;;6.93;4.03;;;18.10;40.10;;;18.48;28.61;93665.94;5070102;28;20476;-59
2023/03/15 08:45:04;;;;;;;13.80;5.33;;;18.20;40.10;;;18.50;29.27;93661.22;5079308;28;20484;-59
2023/03/15 08:47:34;;;;;;;5.03;4.17;;;18.30;39.90;;;18.64;28.21;93664.59;5071649;28;20477;-59
2023/03/15 08:50:04;;;;;;;4.50;4.10;;;18.40;39.70;;;18.83;28.70;93649.44;5071546;28;20915;-59
2023/03/15 08:52:31;;;;;;;7.47;4.20;;;18.60;40.00;;;19.09;28.61;93651.03;5075559;28;20598;-58
2023/03/15 08:54:58;;;;;;;16.80;4.47;;;18.80;39.70;;;19.39;28.07;93654.78;5078850;28;20454;-57
2023/03/15 08:57:27;;;;;;;9.47;4.27;;;19.00;39.60;;;19.56;28.43;93654.97;5070300;28;20475;-56
2023/03/15 08:59:54;;;;;;;4.90;3.87;;;19.20;39.20;;;19.34;27.44;93653.59;5073520;28;20450;-58
2023/03/15 09:02:23;;;;;;;7.07;4.80;;;19.10;38.60;;;19.01;27.90;93654.00;5069527;28;20491;-58
2023/03/15 09:04:50;;;;;;;7.27;4.00;;;18.80;38.40;;;18.61;28.01;93639.19;5070314;28;20451;-57
2023/03/15 09:07:18;;;;;;;4.10;3.80;;;18.50;38.60;;;18.23;28.36;93649.97;5066817;28;20549;-59
2023/03/15 09:09:46;;;;;;;8.33;4.20;;;18.10;38.90;;;17.95;28.11;93645.88;5073320;28;20494;-56
2023/03/15 09:12:15;;;;;;;11.40;4.63;;;17.80;38.80;;;17.81;29.14;93650.44;5069302;28;20470;-58
2023/03/15 09:14:43;;;;;;;9.83;5.23;;;17.60;40.20;;;17.74;29.69;93647.03;5069524;28;20893;-56
2023/03/15 09:17:10;;;;;;;11.03;4.30;;;17.50;40.60;;;17.71;30.33;93650.91;5076528;28;20532;-58
2023/03/15 09:19:39;;;;;;;18.37;4.50;;;17.40;40.90;;;17.63;30.29;93648.53;5075927;28;20468;-58
2023/03/15 09:22:07;;;;;;;9.03;4.10;;;17.30;41.10;;;17.49;30.34;93638.97;5062121;28;20476;-59
2023/03/15 09:24:34;;;;;;;6.77;4.40;;;17.30;41.40;;;17.29;30.22;93639.91;5070477;28;20768;-56
2023/03/15 09:27:01;;;;;;;7.43;4.53;;;17.10;41.20;;;16.87;30.77;93647.41;5076225;28;20883;-59
2023/03/15 09:29:28;;;;;;;12.17;4.67;;;16.80;41.30;;;16.57;31.10;93647.03;5072018;28;20562;-61
2023/03/15 09:31:56;;;;;;;9.90;4.10;;;16.40;41.80;;;16.41;31.42;93646.44;5063247;28;20470;-61
2023/03/15 09:34:23;;;;;;;6.20;3.73;;;16.20;42.30;;;16.25;31.68;93641.53;5079138;28;20458;-57
2023/03/15 09:36:52;;;;;;;10.60;4.20;;;16.00;42.90;;;16.05;31.66;93631.78;5071799;28;20550;-55
2023/03/15 09:39:20;;;;;;;8.70;3.77;;;15.90;42.80;;;15.86;31.98;93636.03;5064225;28;20558;-59
2023/03/15 09:41:49;;;;;;;7.17;5.00;;;15.80;43.20;;;15.80;32.31;93638.69;5075964;28;20485;-56
2023/03/15 09:44:25;;;;;;;12.80;5.10;;;15.60;43.30;;;15.75;32.49;93633.94;5075020;28;20481;-57
2023/03/15 09:47:03;;;;;;;10.97;4.43;;;15.60;43.70;;;15.81;32.56;93619.13;5066323;28;20474;-56
2023/03/15 09:49:37;;;;;;;13.13;4.70;;;15.60;43.90;;;15.86;32.21;93627.25;5078716;28;20521;-58
2023/03/15 09:52:11;;;;;;;7.53;4.00;;;15.60;43.70;;;15.77;32.20;93629.31;5069913;28;20556;-56
2023/03/15 09:54:41;;;;;;;11.23;5.70;;;15.60;43.50;;;15.60;32.59;93610.31;5066221;28;20496;-57
2023/03/15 09:57:13;;;;;;;12.77;4.47;;;15.50;43.70;;;15.44;32.79;93611.47;5078130;28;21067;-57
2023/03/15 09:59:42;;;;;;;9.27;4.77;;;15.30;43.90;;;15.28;32.99;93609.22;5067187;28;20884;-56
2023/03/15 10:02:18;;;;;;;13.37;4.60;;;15.10;44.00;;;15.12;33.15;93620.97;5066268;28;20568;-59
2023/03/15 10:04:46;;;;;;;6.83;4.47;;;15.00;44.20;;;14.94;33.38;93626.81;5072008;28;20954;-57
2023/03/15 10:07:15;;;;;;;9.20;4.43;;;14.80;44.40;;;14.78;33.66;93627.94;5055982;28;20641;-59
2023/03/15 10:09:43;;;;;;;7.77;4.17;;;14.70;44.80;;;14.66;33.61;93627.69;5064571;28;20948;-58
2023/03/15 10:12:12;;;;;;;5.80;3.93;;;14.50;44.60;;;14.56;33.23;93635.94;5060653;28;20495;-58
2023/03/15 10:14:54;;;;;;;10.00;4.37;;;14.40;44.70;;;14.48;33.73;93638.75;5076814;28;20458;-55
2023/03/15 10:17:26;;;;;;;9.97;4.13;;;14.40;45.10;;;14.37;34.06;93629.53;5058379;28;20562;-59
2023/03/15 10:19:57;;;;;;;8.83;4.03;;;14.30;45.30;;;14.34;34.17;93632.56;5067847;28;20852;-58
2023/03/15 10:22:30;;;;;;;5.47;4.40;;;14.20;45.40;;;14.38;34.25;93627.72;5076667;28;20465;-59
2023/03/15 10:25:00;;;;;;;9.57;4.80;;;14.20;45.40;;;14.56;34.13;93622.72;5068404;28;20450;-56